KDUJ/DUJ METAR and TAF weather

Enter ICAO airport designator
Station Type Date Time Source
KDUJ METAR 2019/08/24 19:53 UTC NOAA

KDUJ 241953Z AUTO VRB04KT 10SM BKN060 20/08 A3024 RMK AO2 SLP235 T02000083


Station Type Date Time Source
KDUJ Decoded METAR 2019/08/24 19:53 UTC NOAA

Station name not available
Aug 24, 2019 - 03:53 PM EDT / 2019.08.24 1953 UTC
Wind: Variable at 5 MPH (4 KT):0
Visibility: 10 mile(s):0
Sky conditions: mostly cloudy
Temperature: 68.0 F (20.0 C)
Dew Point: 46.9 F (8.3 C)
Relative Humidity: 46%
Pressure (altimeter): 30.24 in. Hg (1024 hPa)
ob: KDUJ 241953Z AUTO VRB04KT 10SM BKN060 20/08 A3024 RMK AO2 SLP235 T02000083
cycle: 20

Station Type Date Time Source
KDUJ TAF 2019/08/24 18:34 UTC NOAA

TAF KDUJ 241732Z 2418/2518 05007KT P6SM BKN060
FM250000 08005KT P6SM SCT250
FM251500 11009KT P6SM BKN050

Example: see airport list